createdAt,value
2023-01-15T00:02:18.087Z,98919.41
2023-01-15T00:04:45.083Z,98918.53
2023-01-15T00:07:11.954Z,98903.78
2023-01-15T00:09:38.865Z,98902.91
2023-01-15T00:12:05.914Z,98913.31
2023-01-15T00:14:32.789Z,98895.94
2023-01-15T00:16:59.768Z,98897.66
2023-01-15T00:19:26.670Z,98903.69
2023-01-15T00:21:54.116Z,98913.22
2023-01-15T00:24:39.737Z,98908.88
2023-01-15T00:27:25.585Z,98906.28
2023-01-15T00:29:52.542Z,98917.53
2023-01-15T00:32:19.568Z,98897.59
2023-01-15T00:34:46.475Z,98892.38
2023-01-15T00:37:13.480Z,98895.00
2023-01-15T00:39:40.376Z,98894.13
2023-01-15T00:42:07.388Z,98876.75
2023-01-15T00:44:34.332Z,98874.13
2023-01-15T00:47:01.372Z,98862.81
2023-01-15T00:49:28.393Z,98861.91
2023-01-15T00:51:55.295Z,98875.78
2023-01-15T00:54:22.261Z,98878.38
2023-01-15T00:56:49.186Z,98865.34
2023-01-15T00:59:16.485Z,98878.34
2023-01-15T01:01:43.525Z,98865.34
2023-01-15T01:04:10.615Z,98857.56
2023-01-15T01:06:37.526Z,98847.16
2023-01-15T01:09:04.616Z,98848.06
2023-01-15T01:11:34.415Z,98844.59
2023-01-15T01:14:02.676Z,98842.88
2023-01-15T01:16:37.355Z,98854.13
2023-01-15T01:19:15.185Z,98850.63
2023-01-15T01:21:43.626Z,98852.31
2023-01-15T01:24:21.330Z,98852.25
2023-01-15T01:26:50.062Z,98844.41
2023-01-15T01:29:20.430Z,98852.19
2023-01-15T01:31:48.198Z,98868.66
2023-01-15T01:34:15.449Z,98875.56
2023-01-15T01:36:44.698Z,98866.81
2023-01-15T01:39:18.195Z,98859.00
2023-01-15T01:41:46.343Z,98842.47
2023-01-15T01:44:34.940Z,98833.75
2023-01-15T01:47:08.643Z,98830.22
2023-01-15T01:49:38.786Z,98830.16
2023-01-15T01:52:15.993Z,98844.03
2023-01-15T01:54:46.481Z,98830.16
2023-01-15T01:57:16.044Z,98845.78
2023-01-15T01:59:44.023Z,98852.75
2023-01-15T02:02:11.154Z,98840.63
2023-01-15T02:04:38.854Z,98841.50
2023-01-15T02:07:07.056Z,98833.72
2023-01-15T02:09:34.067Z,98830.25
2023-01-15T02:12:17.727Z,98840.69
2023-01-15T02:15:00.041Z,98842.41
2023-01-15T02:18:33.415Z,98830.28
2023-01-15T02:21:10.219Z,98821.63
2023-01-15T02:24:17.836Z,98832.06
2023-01-15T02:27:03.560Z,98836.41
2023-01-15T02:30:04.471Z,98830.38
2023-01-15T02:32:56.747Z,98839.06
2023-01-15T02:35:45.239Z,98827.78
2023-01-15T02:38:22.185Z,98832.19
2023-01-15T02:40:54.464Z,98820.91
2023-01-15T02:43:26.124Z,98824.38
2023-01-15T02:45:58.004Z,98818.31
2023-01-15T02:48:30.520Z,98820.91
2023-01-15T02:51:11.479Z,98820.06
2023-01-15T02:53:43.544Z,98820.06
2023-01-15T02:56:24.465Z,98825.28
2023-01-15T02:59:00.203Z,98821.81
2023-01-15T03:01:34.575Z,98819.19
2023-01-15T03:04:11.299Z,98826.13
2023-01-15T03:07:02.508Z,98816.56
2023-01-15T03:09:31.221Z,98816.56
2023-01-15T03:12:18.713Z,98816.56
2023-01-15T03:15:05.529Z,98818.31
2023-01-15T03:17:54.055Z,98818.31
2023-01-15T03:20:26.334Z,98819.97
2023-01-15T03:23:06.823Z,98813.09
2023-01-15T03:25:42.782Z,98809.63
2023-01-15T03:28:12.595Z,98822.59
2023-01-15T03:30:40.035Z,98815.63
2023-01-15T03:33:11.741Z,98811.28
2023-01-15T03:35:58.828Z,98812.16
2023-01-15T03:38:33.153Z,98814.75
2023-01-15T03:41:40.670Z,98820.81
2023-01-15T03:44:28.265Z,98819.09
2023-01-15T03:47:25.043Z,98818.25
2023-01-15T03:50:09.656Z,98830.38
2023-01-15T03:52:46.249Z,98827.75
2023-01-15T03:55:22.497Z,98826.03
2023-01-15T03:58:01.346Z,98826.91
2023-01-15T04:00:42.732Z,98819.09
2023-01-15T04:03:13.276Z,98816.47
2023-01-15T04:05:41.681Z,98821.69
2023-01-15T04:08:11.847Z,98832.06
2023-01-15T04:10:51.782Z,98867.63
2023-01-15T04:13:19.893Z,98879.81
2023-01-15T04:15:47.274Z,98891.28
2023-01-15T04:18:17.327Z,98893.25
2023-01-15T04:20:45.690Z,98902.97
2023-01-15T04:23:13.163Z,98910.00
2023-01-15T04:25:41.240Z,98915.28
2023-01-15T04:28:09.719Z,98930.09
2023-01-15T04:30:37.632Z,98937.06
2023-01-15T04:33:05.250Z,98936.25
2023-01-15T04:35:32.365Z,98927.63
2023-01-15T04:38:00.812Z,98933.75
2023-01-15T04:40:47.483Z,98940.69
2023-01-15T04:43:33.686Z,98941.63
2023-01-15T04:46:01.235Z,98955.53
2023-01-15T04:48:28.537Z,98965.94
2023-01-15T04:50:56.037Z,98978.06
2023-01-15T04:53:23.761Z,98972.91
2023-01-15T04:55:50.859Z,98980.69
2023-01-15T04:58:18.080Z,98978.09
2023-01-15T05:00:45.598Z,98985.03
2023-01-15T05:03:12.960Z,98976.41
2023-01-15T05:05:40.286Z,98981.59
2023-01-15T05:08:07.576Z,98981.59
2023-01-15T05:10:37.855Z,98990.25
2023-01-15T05:13:05.197Z,98986.81
2023-01-15T05:15:33.193Z,98990.25
2023-01-15T05:18:00.519Z,98991.97
2023-01-15T05:20:30.618Z,98978.16
2023-01-15T05:23:02.345Z,98973.84
2023-01-15T05:25:29.903Z,98978.16
2023-01-15T05:28:03.217Z,98983.34
2023-01-15T05:30:30.951Z,98979.88
2023-01-15T05:33:01.184Z,98977.31
2023-01-15T05:35:28.663Z,98979.91
2023-01-15T05:37:59.065Z,98992.88
2023-01-15T05:40:32.267Z,98986.81
2023-01-15T05:43:00.330Z,98979.91
2023-01-15T05:45:28.179Z,98986.78
2023-01-15T05:47:59.515Z,98984.19
2023-01-15T05:50:30.076Z,98985.06
2023-01-15T05:52:57.793Z,98982.50
2023-01-15T05:55:25.401Z,98985.97
2023-01-15T05:57:53.321Z,98977.28
2023-01-15T06:00:21.750Z,98973.84
2023-01-15T06:02:50.912Z,98975.56
2023-01-15T06:05:21.629Z,98969.50
2023-01-15T06:07:52.568Z,98974.69
2023-01-15T06:10:20.033Z,98969.50
2023-01-15T06:13:02.946Z,98972.97
2023-01-15T06:15:30.914Z,98954.84
2023-01-15T06:18:01.443Z,98960.91
2023-01-15T06:20:32.436Z,98964.31
2023-01-15T06:23:05.266Z,98969.50
2023-01-15T06:25:42.146Z,98961.72
2023-01-15T06:28:16.719Z,98961.75
2023-01-15T06:30:44.781Z,98963.50
2023-01-15T06:33:12.498Z,98969.53
2023-01-15T06:35:40.283Z,98987.69
2023-01-15T06:38:08.386Z,98978.19
2023-01-15T06:40:39.060Z,98999.78
2023-01-15T06:43:31.278Z,98990.28
2023-01-15T06:46:17.703Z,98984.22
2023-01-15T06:48:48.210Z,98979.91
2023-01-15T06:51:19.587Z,98987.66
2023-01-15T06:53:47.809Z,98985.06
2023-01-15T06:56:15.904Z,98987.66
2023-01-15T06:58:43.972Z,98985.94
2023-01-15T07:01:15.025Z,98990.25
2023-01-15T07:03:42.637Z,98987.69
2023-01-15T07:06:13.819Z,98992.88
2023-01-15T07:08:45.067Z,99006.69
2023-01-15T07:11:18.568Z,99008.41
2023-01-15T07:13:51.657Z,99018.78
2023-01-15T07:16:28.852Z,99015.31
2023-01-15T07:19:05.210Z,99017.91
2023-01-15T07:21:38.741Z,99009.25
2023-01-15T07:24:07.505Z,99011.84
2023-01-15T07:26:35.878Z,99014.44
2023-01-15T07:29:04.872Z,99009.25
2023-01-15T07:31:33.038Z,99010.13
2023-01-15T07:34:01.139Z,99010.13
2023-01-15T07:36:38.525Z,99023.06
2023-01-15T07:39:10.895Z,99023.09
2023-01-15T07:42:03.643Z,99019.63
2023-01-15T07:44:53.339Z,99011.84
2023-01-15T07:47:44.935Z,99013.56
2023-01-15T07:50:25.619Z,99030.84
2023-01-15T07:52:57.773Z,99034.28
2023-01-15T07:55:29.032Z,99036.03
2023-01-15T07:58:05.227Z,99037.75
2023-01-15T08:00:33.598Z,99038.63
2023-01-15T08:03:03.201Z,99041.19
2023-01-15T08:05:30.866Z,99051.56
2023-01-15T08:07:58.489Z,99048.13
2023-01-15T08:10:31.891Z,99044.66
2023-01-15T08:13:21.046Z,99036.88
2023-01-15T08:15:50.712Z,99023.06
2023-01-15T08:18:21.908Z,99009.25
2023-01-15T08:20:58.073Z,99008.38
2023-01-15T08:23:29.109Z,99016.16
2023-01-15T08:26:02.608Z,99011.00
2023-01-15T08:28:29.964Z,99014.41
2023-01-15T08:30:57.736Z,99031.72
2023-01-15T08:33:25.292Z,99029.97
2023-01-15T08:35:53.472Z,99036.91
2023-01-15T08:38:21.231Z,99032.59
2023-01-15T08:41:03.957Z,99036.91
2023-01-15T08:43:36.629Z,99039.50
2023-01-15T08:46:06.339Z,99036.06
2023-01-15T08:48:40.442Z,99047.28
2023-01-15T08:51:13.638Z,99040.38
2023-01-15T08:53:52.804Z,99042.97
2023-01-15T08:56:23.672Z,99043.00
2023-01-15T08:58:51.465Z,99035.19
2023-01-15T09:01:20.075Z,99039.53
2023-01-15T09:03:48.736Z,99043.00
2023-01-15T09:06:26.139Z,99051.63
2023-01-15T09:09:02.082Z,99054.22
2023-01-15T09:11:36.095Z,99067.19
2023-01-15T09:14:58.772Z,99063.75
2023-01-15T09:16:58.322Z,99068.06
2023-01-15T09:19:32.252Z,99055.97
2023-01-15T09:22:05.460Z,99068.06
2023-01-15T09:24:38.839Z,99062.88
2023-01-15T09:27:15.519Z,99071.53
2023-01-15T09:29:49.687Z,99068.94
2023-01-15T09:32:17.303Z,99068.94
2023-01-15T09:34:44.716Z,99062.00
2023-01-15T09:37:12.615Z,99072.38
2023-01-15T09:39:40.783Z,99066.34
2023-01-15T09:42:43.983Z,99076.72
2023-01-15T09:45:32.218Z,99084.50
2023-01-15T09:48:24.773Z,99090.53
2023-01-15T09:54:37.027Z,99079.28
2023-01-15T09:57:16.127Z,99075.84
2023-01-15T09:59:55.465Z,99071.47
2023-01-15T10:03:21.364Z,99081.88
2023-01-15T10:06:03.901Z,99074.06
2023-01-15T10:08:55.074Z,99068.88
2023-01-15T10:12:07.728Z,99061.06
2023-01-15T10:14:51.017Z,99049.81
2023-01-15T10:18:00.987Z,99061.06
2023-01-15T10:21:09.855Z,99064.53
2023-01-15T10:23:49.377Z,99066.22
2023-01-15T10:26:44.828Z,99062.75
2023-01-15T10:29:39.625Z,99057.56
2023-01-15T10:33:06.851Z,99055.81
2023-01-15T10:36:11.827Z,99055.81
2023-01-15T10:38:56.137Z,99046.25
2023-01-15T10:41:53.369Z,99053.16
2023-01-15T10:44:53.971Z,99057.50
2023-01-15T10:47:47.139Z,99059.19
2023-01-15T10:50:22.376Z,99060.91
2023-01-15T10:53:28.996Z,99063.50
2023-01-15T10:56:08.230Z,99060.03
2023-01-15T10:58:48.075Z,99058.31
2023-01-15T11:01:23.882Z,99066.97
2023-01-15T11:03:51.899Z,99060.03
2023-01-15T11:06:25.824Z,99065.19
2023-01-15T11:09:09.158Z,99075.56
2023-01-15T11:12:07.168Z,99074.69
2023-01-15T11:15:03.237Z,99080.72
2023-01-15T11:18:16.978Z,99072.06
2023-01-15T11:21:07.984Z,99072.03
2023-01-15T11:23:39.548Z,99073.78
2023-01-15T11:26:33.933Z,99066.00
2023-01-15T11:29:36.612Z,99068.63
2023-01-15T11:32:10.822Z,99072.97
2023-01-15T11:34:52.889Z,99072.09
2023-01-15T11:37:23.862Z,99070.34
2023-01-15T11:40:56.006Z,99066.91
2023-01-15T11:43:55.357Z,99066.91
2023-01-15T11:46:49.741Z,99069.50
2023-01-15T11:49:49.013Z,99062.59
2023-01-15T11:52:33.015Z,99069.56
2023-01-15T11:55:06.495Z,99057.44
2023-01-15T11:57:37.750Z,99062.63
2023-01-15T12:00:14.380Z,99057.44
2023-01-15T12:02:57.929Z,99067.81
2023-01-15T12:05:41.564Z,99065.25
2023-01-15T12:09:22.918Z,99061.81
2023-01-15T12:12:31.270Z,99049.69
2023-01-15T12:15:48.216Z,99061.78
2023-01-15T12:18:53.431Z,99055.72
2023-01-15T12:22:18.948Z,99066.13
2023-01-15T12:25:10.203Z,99066.09
2023-01-15T12:28:27.624Z,99063.50
2023-01-15T12:31:04.590Z,99063.50
2023-01-15T12:34:25.495Z,99052.25
2023-01-15T12:37:42.491Z,99047.03
2023-01-15T12:41:03.786Z,99049.63
2023-01-15T12:44:00.659Z,99048.75
2023-01-15T12:50:49.073Z,99033.19
2023-01-15T12:54:19.770Z,99041.91
2023-01-15T12:57:47.554Z,99041.91
2023-01-15T13:04:40.588Z,99035.88
2023-01-15T13:07:38.648Z,99040.22
2023-01-15T13:11:13.276Z,99039.31
2023-01-15T13:14:29.003Z,99039.31
2023-01-15T13:18:11.266Z,99035.84
2023-01-15T13:25:29.926Z,99043.66
2023-01-15T13:28:51.709Z,99053.22
2023-01-15T13:31:58.754Z,99047.22
2023-01-15T13:35:17.426Z,99049.84
2023-01-15T13:38:11.668Z,99049.88
2023-01-15T13:40:59.818Z,99056.78
2023-01-15T13:43:54.251Z,99055.06
2023-01-15T13:46:58.154Z,99051.63
2023-01-15T13:50:02.307Z,99047.28
2023-01-15T13:52:53.061Z,99042.13
2023-01-15T13:55:58.137Z,99060.28
2023-01-15T13:59:09.859Z,99069.81
2023-01-15T14:04:54.263Z,99062.00
2023-01-15T14:07:39.893Z,99063.75
2023-01-15T14:11:00.293Z,99058.56
2023-01-15T14:14:47.699Z,99066.34
2023-01-15T14:18:04.100Z,99069.78
2023-01-15T14:21:26.762Z,99093.16
2023-01-15T14:25:06.912Z,99095.75
2023-01-15T14:28:32.377Z,99113.88
2023-01-15T14:32:05.791Z,99124.25
2023-01-15T14:34:35.753Z,99121.66
2023-01-15T14:37:23.504Z,99125.09
2023-01-15T14:40:03.440Z,99129.41
2023-01-15T14:42:56.841Z,99127.69
2023-01-15T14:45:29.947Z,99132.00
2023-01-15T14:47:59.777Z,99139.78
2023-01-15T14:50:39.106Z,99151.84
2023-01-15T14:53:12.047Z,99156.19
2023-01-15T14:55:52.054Z,99160.53
2023-01-15T14:58:37.649Z,99160.53
2023-01-15T15:01:35.225Z,99154.50
2023-01-15T15:04:37.135Z,99168.34
2023-01-15T15:07:13.515Z,99157.97
2023-01-15T15:09:46.751Z,99145.00
2023-01-15T15:12:48.558Z,99157.91
2023-01-15T15:15:27.403Z,99157.03
2023-01-15T15:18:12.485Z,99157.84
2023-01-15T15:20:42.444Z,99164.75
2023-01-15T15:23:37.142Z,99157.75
2023-01-15T15:26:17.581Z,99168.97
2023-01-15T15:28:59.223Z,99172.38
2023-01-15T15:31:27.978Z,99174.94
2023-01-15T15:33:56.244Z,99167.97
2023-01-15T15:36:31.379Z,99162.78
2023-01-15T15:39:12.919Z,99165.31
2023-01-15T15:42:02.821Z,99158.38
2023-01-15T15:45:10.625Z,99166.13
2023-01-15T15:47:58.574Z,99160.91
2023-01-15T15:50:34.901Z,99153.09
2023-01-15T15:53:06.691Z,99153.09
2023-01-15T15:55:42.888Z,99152.19
2023-01-15T15:58:21.312Z,99161.66
2023-01-15T16:00:49.100Z,99163.34
2023-01-15T16:03:27.720Z,99165.91
2023-01-15T16:06:07.195Z,99160.69
2023-01-15T16:08:36.271Z,99163.22
2023-01-15T16:11:11.525Z,99159.75
2023-01-15T16:13:41.639Z,99166.63
2023-01-15T16:16:09.699Z,99163.13
2023-01-15T16:18:44.692Z,99156.19
2023-01-15T16:21:31.698Z,99163.94
2023-01-15T16:24:07.230Z,99160.41
2023-01-15T16:26:45.632Z,99155.22
2023-01-15T16:29:23.648Z,99150.88
2023-01-15T16:31:52.111Z,99148.31
2023-01-15T16:34:28.383Z,99151.75
2023-01-15T16:36:55.406Z,99156.03
2023-01-15T16:39:40.717Z,99150.00
2023-01-15T16:42:37.617Z,99150.84
2023-01-15T16:45:22.304Z,99150.81
2023-01-15T16:48:07.363Z,99143.00
2023-01-15T16:50:36.765Z,99153.34
2023-01-15T16:53:06.443Z,99155.06
2023-01-15T16:55:42.080Z,99151.59
2023-01-15T16:58:14.893Z,99156.78
2023-01-15T17:00:47.966Z,99150.75
2023-01-15T17:03:24.440Z,99154.19
2023-01-15T17:06:00.150Z,99136.94
2023-01-15T17:08:39.603Z,99137.00
2023-01-15T17:11:29.899Z,99146.50
2023-01-15T17:14:26.922Z,99135.28
2023-01-15T17:17:21.865Z,99141.31
2023-01-15T17:19:49.901Z,99152.56
2023-01-15T17:22:29.485Z,99138.78
2023-01-15T17:24:58.982Z,99149.13
2023-01-15T17:27:29.009Z,99156.00
2023-01-15T17:29:56.187Z,99142.22
2023-01-15T17:32:30.568Z,99137.88
2023-01-15T17:34:57.629Z,99143.91
2023-01-15T17:37:24.460Z,99139.59
2023-01-15T17:39:51.434Z,99150.81
2023-01-15T17:42:19.652Z,99156.84
2023-01-15T17:44:46.925Z,99155.09
2023-01-15T17:47:14.083Z,99157.69
2023-01-15T17:49:41.039Z,99155.94
2023-01-15T17:52:15.906Z,99155.97
2023-01-15T17:55:02.185Z,99144.81
2023-01-15T17:57:47.681Z,99161.19
2023-01-15T18:00:44.348Z,99152.56
2023-01-15T18:03:37.521Z,99153.41
2023-01-15T18:06:05.330Z,99159.47
2023-01-15T18:08:33.827Z,99160.38
2023-01-15T18:11:00.859Z,99159.50
2023-01-15T18:13:27.783Z,99168.13
2023-01-15T18:15:54.773Z,99161.22
2023-01-15T18:18:21.689Z,99166.41
2023-01-15T18:20:49.601Z,99167.28
2023-01-15T18:23:16.669Z,99179.34
2023-01-15T18:25:46.208Z,99177.63
2023-01-15T18:28:14.526Z,99175.91
2023-01-15T18:30:41.712Z,99179.34
2023-01-15T18:33:08.660Z,99179.34
2023-01-15T18:35:35.707Z,99178.47
2023-01-15T18:38:02.710Z,99186.25
2023-01-15T18:40:35.550Z,99185.34
2023-01-15T18:43:20.756Z,99178.50
2023-01-15T18:46:07.473Z,99181.94
2023-01-15T18:48:34.789Z,99184.50
2023-01-15T18:51:10.067Z,99176.72
2023-01-15T18:53:37.059Z,99177.59
2023-01-15T18:56:05.465Z,99172.44
2023-01-15T18:58:32.475Z,99178.47
2023-01-15T19:01:07.531Z,99181.06
2023-01-15T19:03:34.554Z,99181.94
2023-01-15T19:06:13.580Z,99170.72
2023-01-15T19:08:40.538Z,99176.78
2023-01-15T19:11:13.522Z,99184.53
2023-01-15T19:13:42.160Z,99181.97
2023-01-15T19:16:28.002Z,99181.13
2023-01-15T19:18:55.420Z,99168.19
2023-01-15T19:21:22.968Z,99182.00
2023-01-15T19:23:51.793Z,99175.13
2023-01-15T19:26:18.724Z,99186.31
2023-01-15T19:28:45.674Z,99187.19
2023-01-15T19:31:31.467Z,99176.84
2023-01-15T19:34:31.095Z,99186.34
2023-01-15T19:36:47.789Z,99201.84
2023-01-15T19:39:16.837Z,99178.56
2023-01-15T19:42:03.126Z,99186.34
2023-01-15T19:44:48.598Z,99181.16
2023-01-15T19:47:42.857Z,99182.00
2023-01-15T19:50:23.828Z,99188.88
2023-01-15T19:52:54.281Z,99186.28
2023-01-15T19:55:23.724Z,99196.59
2023-01-15T19:58:02.184Z,99190.56
2023-01-15T20:00:31.105Z,99185.41
2023-01-15T20:02:58.594Z,99195.75
2023-01-15T20:05:28.776Z,99194.00
2023-01-15T20:07:56.113Z,99202.63
2023-01-15T20:10:25.834Z,99199.22
2023-01-15T20:13:12.217Z,99193.19
2023-01-15T20:15:42.669Z,99192.31
2023-01-15T20:18:09.804Z,99196.59
2023-01-15T20:20:38.521Z,99192.28
2023-01-15T20:23:06.043Z,99205.19
2023-01-15T20:25:33.211Z,99199.97
2023-01-15T20:28:00.452Z,99197.34
2023-01-15T20:30:28.374Z,99203.38
2023-01-15T20:33:00.460Z,99201.63
2023-01-15T20:35:33.530Z,99204.19
2023-01-15T20:38:00.559Z,99195.56
2023-01-15T20:40:28.593Z,99199.03
2023-01-15T20:43:14.518Z,99203.34
2023-01-15T20:45:41.756Z,99195.59
2023-01-15T20:48:11.708Z,99193.88
2023-01-15T20:51:01.119Z,99193.06
2023-01-15T20:53:33.987Z,99206.84
2023-01-15T20:56:02.814Z,99199.94
2023-01-15T20:58:30.055Z,99192.19
2023-01-15T21:01:04.271Z,99197.38
2023-01-15T21:03:31.220Z,99199.13
2023-01-15T21:05:58.802Z,99195.69
2023-01-15T21:08:25.956Z,99201.72
2023-01-15T21:10:54.488Z,99203.47
2023-01-15T21:13:22.914Z,99201.72
2023-01-15T21:16:04.983Z,99200.84
2023-01-15T21:18:35.656Z,99205.13
2023-01-15T21:21:09.958Z,99212.03
2023-01-15T21:23:36.967Z,99208.59
2023-01-15T21:26:04.016Z,99205.13
2023-01-15T21:28:31.187Z,99206.84
2023-01-15T21:30:58.481Z,99211.19
2023-01-15T21:33:25.623Z,99203.47
2023-01-15T21:35:52.657Z,99196.59
2023-01-15T21:38:19.623Z,99213.88
2023-01-15T21:40:46.667Z,99200.97
2023-01-15T21:43:31.912Z,99203.59
2023-01-15T21:46:05.979Z,99207.06
2023-01-15T21:48:33.866Z,99215.72
2023-01-15T21:51:05.801Z,99209.69
2023-01-15T21:53:33.536Z,99214.88
2023-01-15T21:56:00.511Z,99214.88
2023-01-15T21:58:27.543Z,99218.38
2023-01-15T22:00:54.584Z,99212.34
2023-01-15T22:03:21.733Z,99214.13
2023-01-15T22:05:48.666Z,99208.94
2023-01-15T22:08:17.125Z,99216.69
2023-01-15T22:10:44.179Z,99211.50
2023-01-15T22:13:11.185Z,99208.03
2023-01-15T22:15:38.034Z,99207.97
2023-01-15T22:18:04.886Z,99205.34
2023-01-15T22:20:31.842Z,99203.59
2023-01-15T22:22:58.802Z,99206.13
2023-01-15T22:25:25.741Z,99209.50
2023-01-15T22:27:54.070Z,99205.16
2023-01-15T22:30:21.119Z,99214.56
2023-01-15T22:32:49.483Z,99205.03
2023-01-15T22:35:17.870Z,99201.59
2023-01-15T22:37:44.793Z,99200.69
2023-01-15T22:40:12.656Z,99199.78
2023-01-15T22:42:39.618Z,99204.03
2023-01-15T22:45:06.911Z,99199.72
2023-01-15T22:47:33.890Z,99212.66
2023-01-15T22:50:00.998Z,99210.03
2023-01-15T22:52:28.440Z,99189.31
2023-01-15T22:54:55.542Z,99209.97
2023-01-15T22:57:23.500Z,99211.66
2023-01-15T22:59:50.439Z,99210.75
2023-01-15T23:02:38.496Z,99203.91
2023-01-15T23:05:09.110Z,99207.41
2023-01-15T23:07:41.619Z,99209.16
2023-01-15T23:10:14.793Z,99211.78
2023-01-15T23:12:45.631Z,99213.50
2023-01-15T23:15:17.581Z,99198.84
2023-01-15T23:17:47.186Z,99214.34
2023-01-15T23:20:16.954Z,99218.63
2023-01-15T23:22:46.334Z,99203.97
2023-01-15T23:25:16.341Z,99208.22
2023-01-15T23:27:46.160Z,99204.69
2023-01-15T23:30:16.290Z,99207.28
2023-01-15T23:32:46.979Z,99190.00
2023-01-15T23:35:14.897Z,99210.63
2023-01-15T23:37:44.901Z,99196.84
2023-01-15T23:40:15.244Z,99196.00
2023-01-15T23:43:03.195Z,99197.78
2023-01-15T23:45:51.099Z,99204.69
2023-01-15T23:48:21.644Z,99190.94
2023-01-15T23:50:51.336Z,99191.78
2023-01-15T23:53:20.946Z,99198.69
2023-01-15T23:55:50.634Z,99191.78
2023-01-15T23:58:19.926Z,99193.56
